createdAt,value
2018-12-15T00:00:10.271Z,2.79
2018-12-15T00:02:38.961Z,2.78
2018-12-15T00:05:07.649Z,2.71
2018-12-15T00:07:36.331Z,2.67
2018-12-15T00:10:05.488Z,2.71
2018-12-15T00:12:34.131Z,2.74
2018-12-15T00:15:02.827Z,2.68
2018-12-15T00:17:31.493Z,2.77
2018-12-15T00:20:00.142Z,2.76
2018-12-15T00:22:28.817Z,2.69
2018-12-15T00:24:57.427Z,2.85
2018-12-15T00:27:26.413Z,2.73
2018-12-15T00:29:55.033Z,2.76
2018-12-15T00:32:23.659Z,2.78
2018-12-15T00:34:52.263Z,2.86
2018-12-15T00:37:20.957Z,2.82
2018-12-15T00:39:49.518Z,2.83
2018-12-15T00:42:18.140Z,2.88
2018-12-15T00:44:46.976Z,2.81
2018-12-15T00:47:15.574Z,2.74
2018-12-15T00:49:44.240Z,2.83
2018-12-15T00:52:12.900Z,2.74
2018-12-15T00:54:41.503Z,2.63
2018-12-15T00:57:10.144Z,2.64
2018-12-15T00:59:38.743Z,2.72
2018-12-15T01:02:07.374Z,2.66
2018-12-15T01:04:36.058Z,2.72
2018-12-15T01:07:04.666Z,2.71
2018-12-15T01:09:33.382Z,2.79
2018-12-15T01:15:38.903Z,2.66
2018-12-15T01:18:07.510Z,2.68
2018-12-15T01:20:36.115Z,2.53
2018-12-15T01:23:04.913Z,2.50
2018-12-15T01:25:33.587Z,2.54
2018-12-15T01:28:02.356Z,2.52
2018-12-15T01:30:31.014Z,2.35
2018-12-15T01:32:59.657Z,2.20
2018-12-15T01:35:28.257Z,2.10
2018-12-15T01:37:56.845Z,2.18
2018-12-15T01:40:26.338Z,2.20
2018-12-15T01:42:55.000Z,2.29
2018-12-15T01:45:23.606Z,2.32
2018-12-15T01:47:52.229Z,2.38
2018-12-15T01:50:20.849Z,2.35
2018-12-15T01:52:49.400Z,2.34
2018-12-15T01:55:18.110Z,2.50
2018-12-15T01:57:46.737Z,2.30
2018-12-15T02:00:15.530Z,2.48
2018-12-15T02:02:44.101Z,2.53
2018-12-15T02:05:12.860Z,2.46
2018-12-15T02:07:41.444Z,2.45
2018-12-15T02:10:10.260Z,2.54
2018-12-15T02:12:38.884Z,2.55
2018-12-15T02:15:08.436Z,2.50
2018-12-15T02:17:37.041Z,2.45
2018-12-15T02:20:06.557Z,2.45
2018-12-15T02:22:35.179Z,2.53
2018-12-15T02:25:03.843Z,2.52
2018-12-15T02:27:32.441Z,2.58
2018-12-15T02:30:01.056Z,2.55
2018-12-15T02:32:29.784Z,2.52
2018-12-15T02:34:58.433Z,2.51
2018-12-15T02:37:29.100Z,2.27
2018-12-15T02:39:57.884Z,2.38
2018-12-15T02:42:26.509Z,2.33
2018-12-15T02:44:55.178Z,2.38
2018-12-15T02:47:23.813Z,2.21
2018-12-15T02:49:52.527Z,2.29
2018-12-15T02:52:21.157Z,2.26
2018-12-15T02:54:49.764Z,2.34
2018-12-15T02:57:18.416Z,2.32
2018-12-15T02:59:46.997Z,2.34
2018-12-15T03:02:15.610Z,2.40
2018-12-15T03:04:44.230Z,2.32
2018-12-15T03:07:12.783Z,2.35
2018-12-15T03:09:41.395Z,2.21
2018-12-15T03:12:10.012Z,2.04
2018-12-15T03:14:38.785Z,2.01
2018-12-15T03:17:07.890Z,1.99
2018-12-15T03:19:36.507Z,2.08
2018-12-15T03:22:05.162Z,2.17
2018-12-15T03:24:33.799Z,2.26
2018-12-15T03:27:02.346Z,2.38
2018-12-15T03:29:30.909Z,2.49
2018-12-15T03:32:00.224Z,2.55
2018-12-15T03:34:28.817Z,2.56
2018-12-15T03:36:57.381Z,2.57
2018-12-15T03:39:26.218Z,2.67
2018-12-15T03:41:55.002Z,2.54
2018-12-15T03:44:23.703Z,2.66
2018-12-15T03:46:52.321Z,2.54
2018-12-15T03:49:21.016Z,2.65
2018-12-15T03:51:49.644Z,2.66
2018-12-15T03:54:18.266Z,2.66
2018-12-15T03:56:46.908Z,2.47
2018-12-15T03:59:15.571Z,2.28
2018-12-15T04:01:44.161Z,2.10
2018-12-15T04:04:12.759Z,2.21
2018-12-15T04:06:41.403Z,2.33
2018-12-15T04:09:10.051Z,2.38
2018-12-15T04:11:38.591Z,2.38
2018-12-15T04:14:07.329Z,2.40
2018-12-15T04:16:35.999Z,2.44
2018-12-15T04:19:04.763Z,2.53
2018-12-15T04:21:33.460Z,2.60
2018-12-15T04:24:02.035Z,2.60
2018-12-15T04:26:30.631Z,2.58
2018-12-15T04:28:59.291Z,2.49
2018-12-15T04:31:28.681Z,2.41
2018-12-15T04:33:57.375Z,2.38
2018-12-15T04:36:26.090Z,2.27
2018-12-15T04:38:54.682Z,2.37
2018-12-15T04:44:02.151Z,2.17
2018-12-15T04:46:30.860Z,2.23
2018-12-15T04:48:59.452Z,2.26
2018-12-15T04:51:28.069Z,2.31
2018-12-15T04:53:56.633Z,2.28
2018-12-15T04:56:25.232Z,2.22
2018-12-15T04:58:53.799Z,2.20
2018-12-15T05:01:22.434Z,2.25
2018-12-15T05:03:51.106Z,2.25
2018-12-15T05:06:19.737Z,2.21
2018-12-15T05:08:48.357Z,2.24
2018-12-15T05:11:17.075Z,2.25
2018-12-15T05:13:45.739Z,2.23
2018-12-15T05:16:14.312Z,2.27
2018-12-15T05:18:42.901Z,2.31
2018-12-15T05:21:11.465Z,2.07
2018-12-15T05:23:40.027Z,2.18
2018-12-15T05:26:08.653Z,2.19
2018-12-15T05:28:37.320Z,2.21
2018-12-15T05:31:06.062Z,2.20
2018-12-15T05:33:35.163Z,2.26
2018-12-15T05:36:03.958Z,2.29
2018-12-15T05:38:32.624Z,2.17
2018-12-15T05:41:01.353Z,2.26
2018-12-15T05:43:29.957Z,2.29
2018-12-15T05:45:58.572Z,2.29
2018-12-15T05:48:27.264Z,2.29
2018-12-15T05:50:55.914Z,2.40
2018-12-15T05:53:24.524Z,2.48
2018-12-15T05:55:53.163Z,2.55
2018-12-15T05:58:21.801Z,2.66
2018-12-15T06:00:50.907Z,2.60
2018-12-15T06:03:19.513Z,2.66
2018-12-15T06:05:48.154Z,2.61
2018-12-15T06:08:16.711Z,2.43
2018-12-15T06:10:45.372Z,2.61
2018-12-15T06:13:13.931Z,2.68
2018-12-15T06:15:42.543Z,2.68
2018-12-15T06:18:12.404Z,2.68
2018-12-15T06:20:41.100Z,2.68
2018-12-15T06:23:09.828Z,2.70
2018-12-15T06:25:38.551Z,2.76
2018-12-15T06:28:07.206Z,2.71
2018-12-15T06:30:36.019Z,2.72
2018-12-15T06:33:05.513Z,2.71
2018-12-15T06:35:34.190Z,2.70
2018-12-15T06:38:02.911Z,2.74
2018-12-15T06:40:31.659Z,2.78
2018-12-15T06:43:00.326Z,2.87
2018-12-15T06:45:28.991Z,2.91
2018-12-15T06:47:57.646Z,3.05
2018-12-15T06:50:26.286Z,3.01
2018-12-15T06:52:55.035Z,3.02
2018-12-15T06:56:26.907Z,3.11
2018-12-15T06:58:55.991Z,3.13
2018-12-15T07:01:24.585Z,3.23
2018-12-15T07:03:53.285Z,3.28
2018-12-15T07:06:21.898Z,3.21
2018-12-15T07:08:50.507Z,3.23
2018-12-15T07:11:19.058Z,3.31
2018-12-15T07:13:47.647Z,3.28
2018-12-15T07:16:16.456Z,3.26
2018-12-15T07:18:45.104Z,3.29
2018-12-15T07:21:13.774Z,3.31
2018-12-15T07:23:42.350Z,3.45
2018-12-15T07:26:10.932Z,3.52
2018-12-15T07:28:43.041Z,3.51
2018-12-15T07:31:11.630Z,3.57
2018-12-15T07:33:40.301Z,3.58
2018-12-15T07:36:09.225Z,3.70
2018-12-15T07:38:37.825Z,3.60
2018-12-15T07:41:06.500Z,3.75
2018-12-15T07:43:36.718Z,3.92
2018-12-15T07:46:05.314Z,3.92
2018-12-15T07:48:33.946Z,4.02
2018-12-15T07:51:02.645Z,3.92
2018-12-15T07:53:31.310Z,4.03
2018-12-15T07:55:59.843Z,4.17
2018-12-15T07:58:28.460Z,4.20
2018-12-15T08:00:57.152Z,4.29
2018-12-15T08:03:26.111Z,4.31
2018-12-15T08:05:54.773Z,4.29
2018-12-15T08:08:23.537Z,4.31
2018-12-15T08:10:57.478Z,4.37
2018-12-15T08:13:30.578Z,4.47
2018-12-15T08:15:59.294Z,4.62
2018-12-15T08:18:27.997Z,4.63
2018-12-15T08:20:56.569Z,4.71
2018-12-15T08:23:25.202Z,4.60
2018-12-15T08:25:53.792Z,4.72
2018-12-15T08:28:22.375Z,4.92
2018-12-15T08:30:51.041Z,4.99
2018-12-15T08:33:21.852Z,5.05
2018-12-15T08:35:50.469Z,5.15
